Flight Track Log - Related Links

Times and Time Zones

All times are in EDT time to prevent confusion due to time zone crossing. See the GJS3706 flight status page for this flight to view local times or setup timezone preferences in your user account.

Time Position Orientation Groundspeed Altitude Reporting Facility
EDT Latitude Longitude Course Direction KTS MPH feet Rate Location/Type
Tue 10:29:43 AM 41.9833 -87.8833 159° South 157 181 1,900  Level Chicago TRACON
Tue 10:30:31 AM 41.9500 -87.8333 132° Southeast 223 257 3,800 1,632 Climbing Chicago TRACON
Tue 10:31:37 AM 41.8667 -87.8000 163° South 279 321 5,000 975 Climbing Chicago TRACON
Tue 10:32:00 AM 41.7586 -87.6464 159° South  Level Estimated
Tue 10:33:00 AM 41.6616 -87.6690 190° South  Level FlightAware Approximate
Tue 10:33:11 AM 41.7650 -87.7881 175° South 272 313 6,400  Level Chicago Center
Tue 10:34:00 AM 41.5886 -87.5806 153° Southeast  Level Estimated
Tue 10:34:13 AM 41.6869 -87.7636 167° South 294 338 9,900  Level Chicago Center
Tue 10:35:00 AM 41.5155 -87.4924 159° South  Level Estimated
Tue 10:35:15 AM 41.6131 -87.7100 152° Southeast 301 346 13,200  Level Chicago Center
Tue 10:36:17 AM 41.5139 -87.6356 151° Southeast 339 390 16,200 2,758 Climbing Chicago Center
Tue 10:37:19 AM 41.4253 -87.5753 153° Southeast 356 410 18,900 2,274 Climbing Chicago Center
Tue 10:38:21 AM 41.3356 -87.5056 150° Southeast 371 427 20,900 1,016 Climbing Chicago Center
Tue 10:39:23 AM 41.2431 -87.4344 150° Southeast 381 438 21,000 48 Climbing Chicago Center
Tue 10:40:25 AM 41.1433 -87.3586 150° Southeast 407 468 21,000  Level Chicago Center
Tue 10:41:27 AM 41.0414 -87.2808 150° Southeast 422 486 21,000  Level Chicago Center
Tue 10:42:29 AM 40.9406 -87.2047 150° Southeast 420 483 21,000  Level Chicago Center
Tue 10:43:31 AM 40.8219 -87.1147 150° Southeast 414 476 21,000  Level Chicago Center
Tue 10:44:33 AM 40.7211 -87.0394 150° Southeast 417 480 21,000  Level Chicago Center
Tue 10:45:35 AM 40.6214 -86.9650 150° Southeast 415 478 21,000  Level Chicago Center
Tue 10:46:37 AM 40.5222 -86.8897 150° Southeast 415 478 21,000  Level Chicago Center
Tue 10:47:39 AM 40.4217 -86.8156 151° Southeast 415 478 21,000  Level Chicago Center
Tue 10:49:45 AM 40.2128 -86.6600 150° Southeast 413 475 21,000  Level Indianapolis Center
Tue 10:50:45 AM 40.1061 -86.5806 150° Southeast 417 480 21,000  Level Chicago Center
Tue 10:51:47 AM 40.0075 -86.5086 151° Southeast 411 473 21,000  Level Chicago Center
Tue 10:52:50 AM 39.8908 -86.4236 151° Southeast 411 473 21,000  Level Indianapolis Center
Tue 10:53:26 AM 39.8333 -86.3667 143° Southeast 409 471 21,000  Level Indianapolis TRACON
Tue 10:54:26 AM 39.7833 -86.2500 119° Southeast 401 461 21,000 -1,095 Level Indianapolis TRACON
Tue 10:55:32 AM 39.7333 -86.1000 113° Southeast 401 461 18,700 -2,000 Descending Indianapolis TRACON
Tue 10:55:56 AM 39.7142 -86.0675 127° Southeast 396 456 18,000 -2,023 Descending Indianapolis Center
Tue 10:56:58 AM 39.6739 -85.9453 113° Southeast 375 432 15,800 -1,887 Descending Indianapolis Center
Tue 10:58:00 AM 39.6333 -85.8267 114° Southeast 363 418 14,100 -1,210 Descending Indianapolis Center
Tue 10:59:02 AM 39.5950 -85.7111 113° Southeast 352 405 13,300 -1,161 Descending Indianapolis Center
Tue 11:00:04 AM 39.5478 -85.5756 114° Southeast 345 397 11,700 -1,113 Descending Indianapolis Center
Tue 11:01:06 AM 39.5128 -85.4728 114° Southeast 338 389 11,000 -339 Descending Indianapolis Center
Tue 11:02:08 AM 39.4553 -85.3697 126° Southeast 346 398 11,000  Level Indianapolis Center
Tue 11:03:10 AM 39.4011 -85.2703 125° Southeast 339 390 11,000  Level Indianapolis Center
Tue 11:04:12 AM 39.3361 -85.1525 125° Southeast 341 392 11,000  Level Indianapolis Center
Tue 11:05:14 AM 39.2808 -85.0511 125° Southeast 342 394 11,000  Level Indianapolis Center
Tue 11:06:16 AM 39.2256 -84.9517 126° Southeast 341 392 11,000  Level Indianapolis Center
Tue 11:07:18 AM 39.1686 -84.8508 126° Southeast 345 397 11,000 -97 Level Indianapolis Center
Tue 11:08:20 AM 39.0964 -84.7822 144° Southeast 336 387 10,800 -732 Descending Indianapolis Center
Tue 11:09:21 AM 39.0133 -84.7806 179° South 301 346 9,500 -1,512 Descending Indianapolis Center
Tue 11:10:23 AM 38.9364 -84.7800 180° South 279 321 7,700 -1,887 Descending Indianapolis Center
Tue 11:11:25 AM 38.8539 -84.7825 181° South 271 312 5,600 -1,403 Descending Indianapolis Center
Tue 11:12:27 AM 38.7756 -84.7742 175° South 272 313 4,800 -963 Descending Indianapolis Center
Tue 11:14:32 AM 38.9000 -84.6667 34° Northeast 177 204 2,600 -1,056 Descending Cincinnati TRACON

Login

Don't have an account? Register now (free) for customized features, flight alerts, and more!